createdAt,value
2023-05-23T00:00:24.525Z,10.80
2023-05-23T00:10:26.609Z,9.93
2023-05-23T00:20:29.240Z,8.20
2023-05-23T00:30:32.594Z,7.82
2023-05-23T00:40:35.790Z,7.43
2023-05-23T00:50:37.948Z,8.27
2023-05-23T01:00:43.153Z,7.93
2023-05-23T01:10:45.261Z,8.27
2023-05-23T01:20:59.995Z,9.55
2023-05-23T01:31:04.731Z,8.00
2023-05-23T01:41:12.563Z,7.53
2023-05-23T01:51:17.109Z,7.97
2023-05-23T02:01:19.348Z,12.85
2023-05-23T02:11:28.437Z,8.80
2023-05-23T02:21:31.233Z,8.52
2023-05-23T02:31:35.456Z,8.60
2023-05-23T02:41:38.644Z,9.20
2023-05-23T02:51:40.731Z,9.13
2023-05-23T03:01:48.765Z,8.05
2023-05-23T03:11:52.834Z,9.60
2023-05-23T03:21:58.974Z,10.50
2023-05-23T03:32:08.436Z,9.30
2023-05-23T03:42:10.682Z,7.25
2023-05-23T03:52:12.868Z,9.93
2023-05-23T04:02:15.020Z,9.23
2023-05-23T04:12:17.120Z,9.80
2023-05-23T04:22:22.317Z,10.18
2023-05-23T04:32:26.842Z,9.43
2023-05-23T04:42:29.935Z,11.35
2023-05-23T04:52:34.423Z,8.25
2023-05-23T05:02:43.105Z,9.63
2023-05-23T05:12:51.377Z,8.60
2023-05-23T05:22:59.400Z,7.60
2023-05-23T05:33:08.078Z,8.60
2023-05-23T05:43:11.296Z,10.80
2023-05-23T05:53:14.549Z,26.58
2023-05-23T06:03:16.635Z,6.47
2023-05-23T06:13:26.277Z,9.77
2023-05-23T06:23:28.670Z,5.13
2023-05-23T06:33:31.805Z,7.45
2023-05-23T06:43:59.123Z,5.80
2023-05-23T06:54:07.359Z,3.33
2023-05-23T07:04:09.525Z,4.43
2023-05-23T07:14:11.506Z,4.05
2023-05-23T07:24:13.553Z,6.00
2023-05-23T07:34:15.531Z,5.47
2023-05-23T07:44:43.157Z,6.25
2023-05-23T07:54:45.190Z,4.78
2023-05-23T08:04:57.269Z,3.10
2023-05-23T08:15:01.339Z,6.32
2023-05-23T08:25:03.588Z,3.72
2023-05-23T08:35:08.311Z,5.38
2023-05-23T08:45:10.890Z,9.75
2023-05-23T08:55:20.883Z,7.45
2023-05-23T09:05:23.282Z,3.67
2023-05-23T09:15:32.614Z,2.95
2023-05-23T09:25:54.843Z,7.53
2023-05-23T09:36:08.231Z,3.67
2023-05-23T09:46:29.010Z,8.68
2023-05-23T09:56:31.503Z,4.07
2023-05-23T10:06:58.011Z,5.03
2023-05-23T10:17:09.158Z,6.93
2023-05-23T10:27:13.908Z,3.92
2023-05-23T10:37:55.523Z,4.82
2023-05-23T10:49:09.082Z,27.65
2023-05-23T10:59:21.705Z,5.38
2023-05-23T11:09:25.755Z,5.20
2023-05-23T11:19:29.241Z,9.00
2023-05-23T11:30:16.632Z,3.67
2023-05-23T11:40:36.102Z,4.43
2023-05-23T11:50:55.178Z,4.97
2023-05-23T12:01:09.676Z,3.17
2023-05-23T12:11:12.516Z,4.15
2023-05-23T12:21:26.775Z,9.18
2023-05-23T12:31:29.213Z,7.18
2023-05-23T12:41:37.219Z,3.92
2023-05-23T12:51:41.501Z,4.70
2023-05-23T13:01:56.788Z,3.97
2023-05-23T13:11:59.119Z,4.43
2023-05-23T13:22:24.755Z,4.25
2023-05-23T13:32:27.205Z,4.25
2023-05-23T13:42:29.653Z,3.42
2023-05-23T13:52:36.578Z,4.28
2023-05-23T14:02:38.751Z,4.60
2023-05-23T14:12:41.165Z,6.78
2023-05-23T14:22:44.396Z,4.40
2023-05-23T14:32:46.989Z,4.82
2023-05-23T14:42:50.249Z,5.57
2023-05-23T14:52:54.788Z,4.55
2023-05-23T15:02:57.043Z,4.88
2023-05-23T15:13:00.282Z,4.97
2023-05-23T15:23:12.577Z,6.25
2023-05-23T15:33:16.144Z,5.93
2023-05-23T15:43:29.060Z,4.47
2023-05-23T15:53:37.194Z,5.78
2023-05-23T16:03:45.653Z,5.95
2023-05-23T16:13:53.918Z,6.50
2023-05-23T16:23:58.028Z,7.25
2023-05-23T16:34:06.926Z,5.22
2023-05-23T16:44:11.437Z,7.13
2023-05-23T16:54:19.005Z,5.93
2023-05-23T17:04:21.469Z,6.28
2023-05-23T17:14:30.171Z,5.15
2023-05-23T17:24:44.834Z,4.70
2023-05-23T17:34:51.478Z,10.65
2023-05-23T17:44:57.414Z,23.10
2023-05-23T17:55:05.457Z,74.63
2023-05-23T18:05:09.590Z,54.60
2023-05-23T18:15:22.709Z,84.10
2023-05-23T18:25:29.685Z,56.95
2023-05-23T18:35:41.884Z,27.50
2023-05-23T18:45:49.005Z,36.35
2023-05-23T18:56:11.621Z,45.00
2023-05-23T19:06:15.720Z,14.73
2023-05-23T19:16:26.036Z,15.63
2023-05-23T19:26:28.196Z,29.33
2023-05-23T19:36:33.433Z,14.25
2023-05-23T19:46:35.439Z,11.48
2023-05-23T19:56:46.009Z,15.73
2023-05-23T20:07:07.730Z,25.33
2023-05-23T20:27:27.195Z,26.65
2023-05-23T20:37:30.727Z,10.07
2023-05-23T20:47:45.246Z,12.77
2023-05-23T20:57:47.233Z,7.82
2023-05-23T21:07:49.271Z,10.00
2023-05-23T21:17:51.779Z,11.18
2023-05-23T21:27:53.855Z,11.82
2023-05-23T21:38:16.147Z,10.98
2023-05-23T21:48:43.166Z,8.60
2023-05-23T21:58:45.118Z,8.10
2023-05-23T22:08:47.078Z,8.30
2023-05-23T22:18:52.172Z,9.80
2023-05-23T22:28:54.610Z,10.00
2023-05-23T22:38:56.785Z,11.77
2023-05-23T22:49:22.551Z,9.43
2023-05-23T22:59:24.466Z,9.02
2023-05-23T23:09:44.654Z,8.45
2023-05-23T23:19:47.101Z,9.75
2023-05-23T23:29:49.012Z,7.75
2023-05-23T23:39:50.937Z,8.18
2023-05-23T23:49:52.922Z,8.93
2023-05-23T23:59:55.108Z,7.47
